Time;durP1;ratioP1;P1;durP2;ratioP2;P2;SDS_P1;SDS_P2;PMS_P1;PMS_P2;Temp;Humidity;BMP_temperature;BMP_pressure;BME280_temperature;BME280_humidity;BME280_pressure;Samples;Min_cycle;Max_cycle;Signal;HPM_P1;HPM_P2
2023/08/25 00:00:39;;;;;;;7.72;4.50;;;20.40;54.50;;;;;;5075061;28;20530;-69
2023/08/25 00:03:07;;;;;;;8.63;4.30;;;21.00;53.50;;;;;;5075092;28;20017;-68
2023/08/25 00:05:38;;;;;;;10.13;4.93;;;20.50;53.80;;;;;;5074494;28;20089;-68
2023/08/25 00:08:06;;;;;;;9.30;5.53;;;20.60;54.60;;;;;;5072747;28;20373;-69
2023/08/25 00:10:37;;;;;;;11.15;5.30;;;19.80;54.70;;;;;;5072869;28;20447;-68
2023/08/25 00:13:05;;;;;;;10.45;5.25;;;19.60;55.50;;;;;;5072908;28;20025;-68
2023/08/25 00:15:33;;;;;;;8.65;5.43;;;20.10;56.00;;;;;;5073464;28;20038;-68
2023/08/25 00:18:01;;;;;;;9.55;5.40;;;20.60;54.80;;;;;;5073443;28;20078;-68
2023/08/25 00:20:29;;;;;;;11.52;5.90;;;21.60;53.00;;;;;;5073863;28;20024;-68
2023/08/25 00:22:57;;;;;;;9.13;5.20;;;21.70;50.80;;;;;;5073409;28;20039;-68
2023/08/25 00:25:24;;;;;;;7.47;4.75;;;20.70;54.00;;;;;;5074634;28;20047;-69
2023/08/25 00:27:52;;;;;;;10.60;5.45;;;21.60;52.20;;;;;;5073829;28;20104;-69
2023/08/25 00:30:19;;;;;;;9.10;4.95;;;22.40;50.00;;;;;;5074746;28;20028;-69
2023/08/25 00:32:47;;;;;;;8.48;4.97;;;21.80;50.10;;;;;;5075151;28;20331;-68
2023/08/25 00:35:15;;;;;;;7.30;5.00;;;20.60;53.30;;;;;;5073744;28;20031;-68
2023/08/25 00:37:42;;;;;;;8.88;4.80;;;20.00;55.30;;;;;;5072830;28;20120;-68
2023/08/25 00:40:11;;;;;;;7.28;4.15;;;21.40;52.30;;;;;;5073052;28;20446;-69
2023/08/25 00:42:38;;;;;;;8.82;4.70;;;21.90;50.00;;;;;;5072931;28;20031;-68
2023/08/25 00:45:06;;;;;;;9.23;4.65;;;21.90;50.40;;;;;;5073291;28;20154;-67
2023/08/25 00:47:34;;;;;;;7.20;4.35;;;22.10;49.70;;;;;;5073376;28;20162;-69
2023/08/25 00:50:03;;;;;;;7.55;4.53;;;22.60;49.50;;;;;;5073467;28;20025;-69
2023/08/25 00:52:31;;;;;;;11.35;4.78;;;21.70;50.50;;;;;;5073717;28;20434;-68
2023/08/25 00:54:58;;;;;;;8.05;4.20;;;21.90;50.10;;;;;;5074860;28;20029;-70
2023/08/25 00:57:31;;;;;;;8.55;3.80;;;21.90;51.00;;;;;;5076917;28;20020;-68
2023/08/25 00:59:59;;;;;;;7.75;4.30;;;22.80;49.00;;;;;;5078473;28;20044;-68
2023/08/25 01:02:26;;;;;;;6.80;3.80;;;23.20;48.30;;;;;;5079424;28;20017;-68
2023/08/25 01:04:54;;;;;;;7.53;4.18;;;23.00;47.40;;;;;;5077414;28;20032;-67
2023/08/25 01:07:21;;;;;;;8.00;3.95;;;22.10;49.70;;;;;;5076648;28;20445;-69
2023/08/25 01:09:50;;;;;;;5.60;3.10;;;22.10;48.80;;;;;;5077206;28;20035;-69
2023/08/25 01:12:43;;;;;;;6.07;3.33;;;22.60;46.60;;;;;;5077231;28;20052;-69
2023/08/25 01:15:33;;;;;;;7.38;3.40;;;23.10;47.40;;;;;;5076876;28;20356;-68
2023/08/25 01:18:12;;;;;;;6.47;2.92;;;23.50;45.70;;;;;;5077826;28;20331;-69
2023/08/25 01:20:41;;;;;;;7.82;3.20;;;23.50;43.10;;;;;;5077104;28;20024;-69
2023/08/25 01:23:32;;;;;;;6.80;3.63;;;23.30;44.60;;;;;;5077003;28;20035;-68
2023/08/25 01:26:01;;;;;;;4.15;2.33;;;23.30;45.60;;;;;;5076905;28;20362;-69
2023/08/25 01:28:28;;;;;;;5.50;2.25;;;23.80;43.10;;;;;;5076458;28;20086;-67
2023/08/25 01:30:59;;;;;;;4.22;2.30;;;23.80;40.90;;;;;;5076963;28;20052;-69
2023/08/25 01:33:30;;;;;;;5.20;2.45;;;23.60;42.30;;;;;;5076350;28;20048;-68
2023/08/25 01:36:14;;;;;;;3.63;2.20;;;23.90;40.40;;;;;;5076946;28;20056;-68
2023/08/25 01:39:06;;;;;;;3.20;1.73;;;24.60;41.50;;;;;;5076307;28;20466;-69
2023/08/25 01:41:47;;;;;;;3.15;1.33;;;24.60;38.00;;;;;;5076864;28;20120;-68
2023/08/25 01:44:19;;;;;;;2.10;1.20;;;24.40;37.70;;;;;;5076416;28;20048;-69
2023/08/25 01:46:52;;;;;;;2.85;1.10;;;24.60;35.70;;;;;;5076538;28;20028;-69
2023/08/25 01:49:21;;;;;;;1.52;1.20;;;24.90;35.80;;;;;;5077413;28;20017;-69
2023/08/25 01:51:48;;;;;;;2.15;1.10;;;25.10;34.80;;;;;;5076491;28;20017;-69
2023/08/25 01:54:16;;;;;;;3.38;1.40;;;24.60;33.30;;;;;;5077513;28;20031;-68
2023/08/25 01:56:44;;;;;;;3.78;1.63;;;24.70;34.40;;;;;;5076804;28;20042;-70
2023/08/25 01:59:11;;;;;;;2.75;1.40;;;24.80;36.60;;;;;;5076172;28;20033;-69
2023/08/25 02:01:39;;;;;;;2.42;1.25;;;25.00;34.80;;;;;;5076703;28;20112;-69
2023/08/25 02:04:07;;;;;;;2.97;1.45;;;25.10;33.30;;;;;;5076224;28;20078;-69
2023/08/25 02:06:35;;;;;;;3.15;1.00;;;25.00;35.90;;;;;;5076612;28;20056;-68
2023/08/25 02:09:04;;;;;;;2.20;1.10;;;24.80;35.00;;;;;;5076287;28;20056;-69
2023/08/25 02:11:31;;;;;;;3.75;1.20;;;25.30;33.60;;;;;;5076180;28;20027;-68
2023/08/25 02:13:59;;;;;;;1.63;1.20;;;25.20;34.90;;;;;;5075915;28;20024;-69
2023/08/25 02:16:26;;;;;;;2.88;1.02;;;25.40;34.50;;;;;;5077169;28;20021;-68
2023/08/25 02:18:54;;;;;;;3.35;1.27;;;25.10;34.20;;;;;;5075732;28;20021;-68
2023/08/25 02:21:21;;;;;;;2.58;1.48;;;25.50;34.50;;;;;;5075977;28;20028;-68
2023/08/25 02:23:49;;;;;;;1.85;1.25;;;25.60;33.60;;;;;;5076038;28;20024;-69
2023/08/25 02:26:16;;;;;;;2.97;1.48;;;25.30;34.60;;;;;;5076536;28;20032;-69
2023/08/25 02:28:44;;;;;;;2.10;1.42;;;25.80;34.30;;;;;;5075647;28;20031;-69
2023/08/25 02:31:11;;;;;;;2.38;1.15;;;26.10;32.90;;;;;;5075480;28;20032;-69
2023/08/25 02:33:39;;;;;;;1.30;1.02;;;26.30;32.50;;;;;;5075499;28;20027;-69
2023/08/25 02:36:06;;;;;;;2.88;1.55;;;26.00;32.60;;;;;;5075497;28;20403;-69
2023/08/25 02:38:35;;;;;;;4.72;1.50;;;25.80;35.00;;;;;;5076438;28;20020;-69
2023/08/25 02:41:02;;;;;;;4.13;1.40;;;26.50;33.10;;;;;;5075411;28;20024;-69
2023/08/25 02:43:29;;;;;;;1.42;1.13;;;26.70;34.10;;;;;;5075297;28;20052;-69
2023/08/25 02:45:59;;;;;;;2.22;1.20;;;26.40;33.60;;;;;;5075239;28;20451;-69
2023/08/25 02:48:27;;;;;;;3.38;1.70;;;26.10;34.80;;;;;;5075656;28;20142;-68
2023/08/25 02:50:54;;;;;;;2.63;1.50;;;26.50;33.60;;;;;;5075336;28;20023;-68
2023/08/25 02:53:22;;;;;;;3.72;1.30;;;26.00;35.50;;;;;;5076224;28;20032;-69
2023/08/25 02:55:50;;;;;;;3.80;1.52;;;25.70;35.30;;;;;;5074940;28;20066;-69
2023/08/25 02:58:17;;;;;;;2.13;1.20;;;26.20;33.40;;;;;;5074993;28;20025;-69
2023/08/25 03:00:45;;;;;;;3.08;1.52;;;26.20;34.70;;;;;;5076241;28;20439;-68
2023/08/25 03:03:12;;;;;;;3.88;1.60;;;26.30;34.20;;;;;;5075542;28;20042;-68
2023/08/25 03:05:40;;;;;;;2.28;1.30;;;26.10;35.10;;;;;;5075717;28;20074;-70
2023/08/25 03:08:12;;;;;;;2.95;1.38;;;26.00;33.40;;;;;;5075556;28;20377;-70
2023/08/25 03:10:44;;;;;;;2.15;1.33;;;26.10;33.10;;;;;;5074996;28;20028;-69
2023/08/25 03:13:11;;;;;;;3.88;1.25;;;26.00;33.50;;;;;;5074848;28;20028;-68
2023/08/25 03:15:39;;;;;;;2.30;1.30;;;25.40;34.40;;;;;;5075800;28;20056;-70
2023/08/25 03:18:06;;;;;;;3.15;1.42;;;25.30;33.70;;;;;;5074329;28;20047;-69
2023/08/25 03:20:34;;;;;;;3.00;1.33;;;25.20;34.50;;;;;;5075592;28;20028;-69
2023/08/25 03:23:02;;;;;;;2.60;1.20;;;25.50;34.50;;;;;;5075637;28;20028;-69
2023/08/25 03:25:29;;;;;;;2.10;1.27;;;25.90;35.00;;;;;;5074415;28;20024;-69
2023/08/25 03:28:00;;;;;;;2.70;1.20;;;25.50;34.20;;;;;;5074927;28;20031;-69
2023/08/25 03:30:28;;;;;;;2.15;1.50;;;24.70;36.60;;;;;;5075022;28;20521;-70
2023/08/25 03:32:55;;;;;;;1.90;1.10;;;24.90;37.70;;;;;;5075911;28;20388;-69
2023/08/25 03:35:23;;;;;;;3.05;1.23;;;25.10;36.30;;;;;;5074954;28;20032;-68
2023/08/25 03:37:51;;;;;;;3.22;1.40;;;24.80;36.60;;;;;;5074526;28;20158;-69
2023/08/25 03:40:20;;;;;;;1.80;1.20;;;24.60;37.20;;;;;;5074678;28;20098;-69
2023/08/25 03:42:48;;;;;;;3.47;1.50;;;25.00;37.20;;;;;;5074413;28;20067;-68
2023/08/25 03:45:15;;;;;;;2.90;1.23;;;25.20;37.00;;;;;;5074157;28;20158;-69
2023/08/25 03:47:43;;;;;;;1.70;1.08;;;25.60;36.80;;;;;;5074491;28;20498;-69
2023/08/25 03:50:14;;;;;;;1.80;1.00;;;25.80;35.60;;;;;;5075806;28;20045;-69
2023/08/25 03:52:42;;;;;;;1.90;1.20;;;26.00;34.80;;;;;;5073976;28;20405;-69
2023/08/25 03:55:10;;;;;;;2.95;1.10;;;26.00;35.90;;;;;;5075065;28;20029;-69
2023/08/25 03:57:37;;;;;;;3.15;1.05;;;25.40;35.30;;;;;;5073603;28;20070;-70
2023/08/25 04:00:09;;;;;;;2.72;1.10;;;24.30;36.60;;;;;;5072896;28;20020;-70
2023/08/25 04:02:39;;;;;;;2.42;0.93;;;24.60;36.40;;;;;;5074273;28;20036;-70
2023/08/25 04:05:07;;;;;;;1.77;0.90;;;24.40;36.70;;;;;;5073941;28;20067;-70
2023/08/25 04:07:35;;;;;;;2.72;1.17;;;24.20;36.40;;;;;;5075407;28;20074;-70
2023/08/25 04:10:03;;;;;;;2.17;0.85;;;24.20;36.60;;;;;;5075223;28;20070;-71
2023/08/25 04:12:30;;;;;;;2.17;1.00;;;23.90;37.20;;;;;;5074061;28;20024;-70
2023/08/25 04:14:58;;;;;;;2.33;0.90;;;23.90;36.50;;;;;;5074415;28;20035;-69
2023/08/25 04:17:25;;;;;;;2.95;1.42;;;24.30;37.30;;;;;;5074232;28;20086;-70
2023/08/25 04:19:53;;;;;;;1.70;1.00;;;24.80;37.40;;;;;;5073932;28;20115;-70
2023/08/25 04:22:21;;;;;;;1.60;0.90;;;25.10;36.10;;;;;;5073784;28;20059;-70
2023/08/25 04:24:49;;;;;;;2.88;1.10;;;24.30;37.20;;;;;;5073943;28;20123;-69
2023/08/25 04:27:16;;;;;;;1.50;0.90;;;24.40;37.40;;;;;;5074089;28;20024;-70
2023/08/25 04:29:44;;;;;;;1.95;0.90;;;24.50;36.80;;;;;;5074912;28;20036;-69
2023/08/25 04:32:12;;;;;;;1.77;0.75;;;24.60;36.10;;;;;;5078092;28;20443;-69
2023/08/25 04:34:39;;;;;;;1.10;0.77;;;24.60;36.50;;;;;;5077791;28;20176;-69
2023/08/25 04:37:07;;;;;;;2.15;0.70;;;24.20;36.40;;;;;;5077883;28;20020;-69
2023/08/25 04:39:35;;;;;;;1.50;0.70;;;23.60;37.40;;;;;;5077866;28;20098;-69
2023/08/25 04:42:03;;;;;;;1.40;0.90;;;23.70;37.50;;;;;;5078809;28;20031;-69
2023/08/25 04:44:30;;;;;;;2.08;0.88;;;23.60;37.50;;;;;;5077611;28;20202;-69
2023/08/25 04:46:58;;;;;;;2.15;0.85;;;23.30;38.50;;;;;;5078721;28;20032;-69
2023/08/25 04:49:26;;;;;;;2.40;0.90;;;23.10;39.00;;;;;;5076521;28;20025;-68
2023/08/25 04:51:53;;;;;;;3.42;1.20;;;22.90;40.40;;;;;;5078464;28;20032;-70
2023/08/25 04:54:25;;;;;;;2.15;1.08;;;22.90;41.20;;;;;;5078018;28;20511;-70
2023/08/25 04:56:52;;;;;;;3.08;1.33;;;23.50;40.80;;;;;;5079076;28;20039;-69
2023/08/25 04:59:20;;;;;;;2.40;1.25;;;23.70;42.00;;;;;;5079472;28;20044;-69
2023/08/25 05:01:48;;;;;;;5.80;1.20;;;23.90;42.70;;;;;;5077358;28;20020;-69
2023/08/25 05:04:15;;;;;;;3.30;1.10;;;24.00;41.30;;;;;;5077543;28;20025;-70
2023/08/25 05:06:43;;;;;;;4.53;1.20;;;24.10;42.40;;;;;;5078212;28;20050;-69
2023/08/25 05:09:11;;;;;;;4.72;1.23;;;24.00;42.20;;;;;;5077281;28;20442;-68
2023/08/25 05:11:39;;;;;;;5.80;1.27;;;24.10;43.30;;;;;;5077451;28;20033;-68
2023/08/25 05:14:07;;;;;;;4.80;1.40;;;24.60;43.40;;;;;;5077290;28;20473;-68
2023/08/25 05:16:35;;;;;;;2.70;1.00;;;25.10;42.40;;;;;;5078256;28;20438;-68
2023/08/25 05:19:02;;;;;;;4.65;1.50;;;25.10;40.80;;;;;;5077117;28;20115;-67
2023/08/25 05:21:30;;;;;;;4.53;1.10;;;25.70;41.00;;;;;;5077276;28;20080;-70
2023/08/25 05:25:53;;;;;;;4.13;1.00;;;26.20;40.20;;;;;;5134183;27;20440;-67
2023/08/25 05:28:21;;;;;;;4.32;1.05;;;25.90;40.40;;;;;;5132898;28;20031;-67
2023/08/25 05:30:49;;;;;;;4.13;1.70;;;26.00;41.00;;;;;;5115434;28;20076;-68
2023/08/25 05:33:16;;;;;;;4.63;1.23;;;25.90;41.90;;;;;;5133262;28;20027;-68
2023/08/25 05:35:44;;;;;;;3.42;1.63;;;25.40;42.50;;;;;;5115224;28;20024;-69
2023/08/25 05:38:11;;;;;;;3.47;1.65;;;26.00;41.40;;;;;;5133495;28;20047;-68
2023/08/25 05:40:39;;;;;;;2.80;1.30;;;26.60;40.40;;;;;;5133315;28;20441;-69
2023/08/25 05:43:07;;;;;;;2.35;1.00;;;27.40;39.20;;;;;;5133399;28;20030;-67
2023/08/25 05:45:34;;;;;;;3.10;1.25;;;27.40;39.00;;;;;;5115685;28;20380;-68
2023/08/25 05:48:02;;;;;;;2.72;1.20;;;27.20;39.00;;;;;;5115108;28;20448;-68
2023/08/25 05:50:29;;;;;;;3.45;1.38;;;26.60;40.00;;;;;;5132943;28;20326;-67
2023/08/25 05:52:57;;;;;;;4.63;1.23;;;25.40;41.80;;;;;;5132502;28;20012;-68
2023/08/25 05:55:26;;;;;;;3.58;1.40;;;25.10;41.60;;;;;;5114225;28;20110;-67
2023/08/25 05:57:53;;;;;;;3.08;1.20;;;25.20;41.40;;;;;;5132476;28;20031;-67
2023/08/25 06:00:21;;;;;;;3.90;1.40;;;25.70;40.80;;;;;;5114770;28;20025;-66
2023/08/25 06:02:49;;;;;;;4.07;1.27;;;25.60;41.30;;;;;;5114722;28;20502;-66
2023/08/25 06:05:16;;;;;;;2.85;1.27;;;26.30;39.70;;;;;;5132850;28;20035;-70
2023/08/25 06:07:44;;;;;;;3.42;1.20;;;26.50;38.40;;;;;;5114257;28;20011;-67
2023/08/25 06:10:12;;;;;;;2.95;1.15;;;27.00;37.70;;;;;;5131568;28;20115;-66
2023/08/25 06:12:39;;;;;;;3.05;1.30;;;27.20;38.10;;;;;;5113172;28;20445;-67
2023/08/25 06:15:09;;;;;;;3.05;1.15;;;26.70;38.90;;;;;;5113294;28;20028;-67
2023/08/25 06:17:36;;;;;;;1.73;1.02;;;27.60;38.20;;;;;;5113959;28;20453;-67
2023/08/25 06:20:06;;;;;;;4.90;1.63;;;27.40;38.30;;;;;;5114101;28;20027;-68
2023/08/25 06:22:34;;;;;;;3.92;1.10;;;26.90;39.30;;;;;;5114365;28;20023;-67
2023/08/25 06:25:01;;;;;;;3.17;1.23;;;27.70;38.40;;;;;;5132270;27;20031;-69
2023/08/25 06:27:29;;;;;;;4.63;1.52;;;27.10;39.50;;;;;;5132564;28;20023;-66
2023/08/25 06:29:56;;;;;;;2.88;1.30;;;27.50;39.60;;;;;;5114219;28;20024;-67
2023/08/25 06:32:28;;;;;;;4.05;1.08;;;27.30;40.10;;;;;;5115587;28;20386;-67
2023/08/25 06:34:55;;;;;;;3.45;1.30;;;26.30;41.10;;;;;;5115530;28;20028;-67
2023/08/25 06:37:23;;;;;;;5.95;1.55;;;26.90;41.00;;;;;;5118009;28;20076;-67
2023/08/25 06:39:50;;;;;;;3.95;1.48;;;24.70;44.00;;;;;;5100121;28;20357;-66
2023/08/25 06:42:18;;;;;;;3.80;1.40;;;22.40;49.10;;;;;;5118389;28;20020;-66
2023/08/25 06:44:45;;;;;;;7.10;1.80;;;21.10;52.60;;;;;;5099007;28;20027;-69
2023/08/25 06:47:15;;;;;;;5.22;1.70;;;20.50;54.00;;;;;;5099863;28;20028;-69
2023/08/25 06:49:45;;;;;;;5.18;1.77;;;20.00;54.40;;;;;;5118080;28;20023;-69
2023/08/25 06:52:12;;;;;;;5.10;1.35;;;20.00;55.10;;;;;;5101292;28;20031;-68
2023/08/25 06:54:40;;;;;;;4.95;1.33;;;19.70;55.40;;;;;;5100406;28;20039;-69
2023/08/25 06:57:11;;;;;;;4.18;1.63;;;19.40;55.90;;;;;;5099804;28;20034;-67
2023/08/25 06:59:40;;;;;;;2.20;1.13;;;19.40;56.20;;;;;;5100846;28;20460;-70
2023/08/25 07:02:18;;;;;;;3.85;1.48;;;19.30;55.80;;;;;;5118979;28;20055;-71
2023/08/25 07:04:46;;;;;;;6.35;1.60;;;19.20;55.60;;;;;;5099827;28;20062;-70
2023/08/25 07:07:13;;;;;;;4.95;1.50;;;19.10;56.00;;;;;;5099078;28;20046;-68
2023/08/25 07:09:43;;;;;;;3.47;1.45;;;19.10;56.40;;;;;;5099431;28;20027;-72
2023/08/25 07:12:10;;;;;;;5.55;1.08;;;19.10;56.20;;;;;;5118250;28;20061;-71
2023/08/25 07:14:38;;;;;;;4.22;1.35;;;19.00;56.10;;;;;;5117774;28;20027;-73
2023/08/25 07:17:06;;;;;;;4.40;1.40;;;19.00;56.30;;;;;;5099602;28;20028;-72
2023/08/25 07:19:34;;;;;;;5.55;1.42;;;18.80;56.70;;;;;;5098952;28;20473;-72
2023/08/25 07:22:02;;;;;;;7.70;1.75;;;18.80;57.10;;;;;;5099401;28;20027;-73
2023/08/25 07:24:30;;;;;;;6.93;2.05;;;18.60;57.60;;;;;;5116966;28;20086;-73
2023/08/25 07:26:57;;;;;;;6.65;2.00;;;18.60;59.30;;;;;;5099470;28;20020;-72
2023/08/25 07:29:25;;;;;;;6.63;3.15;;;18.50;60.60;;;;;;5117449;28;20016;-72
2023/08/25 07:31:53;;;;;;;5.20;1.70;;;18.50;60.80;;;;;;5100190;28;20064;-71
2023/08/25 07:34:21;;;;;;;4.00;1.48;;;18.40;61.40;;;;;;5100571;28;20080;-71
2023/08/25 07:36:48;;;;;;;9.07;2.42;;;18.30;61.70;;;;;;5099019;28;20567;-72
2023/08/25 07:39:17;;;;;;;9.00;2.70;;;18.20;62.40;;;;;;5098822;28;20104;-72
2023/08/25 07:41:45;;;;;;;10.48;2.65;;;18.10;62.90;;;;;;5098609;28;20024;-72
2023/08/25 07:44:13;;;;;;;8.13;2.40;;;18.10;63.00;;;;;;5098917;28;20441;-72
2023/08/25 07:46:41;;;;;;;9.18;2.42;;;18.00;63.30;;;;;;5098717;28;20046;-71
2023/08/25 07:49:09;;;;;;;7.10;2.60;;;17.90;63.90;;;;;;5098315;28;20066;-71
2023/08/25 07:51:37;;;;;;;9.80;2.72;;;17.80;64.00;;;;;;5116868;28;20031;-71
2023/08/25 07:54:06;;;;;;;4.40;1.90;;;17.70;64.30;;;;;;5098914;28;20028;-72
2023/08/25 07:56:34;;;;;;;4.53;1.65;;;17.70;64.90;;;;;;5098894;28;20514;-72
2023/08/25 07:59:01;;;;;;;3.25;1.70;;;17.60;65.40;;;;;;5116648;28;20102;-72
2023/08/25 08:01:30;;;;;;;9.88;2.97;;;17.60;65.90;;;;;;5116697;28;20450;-72
2023/08/25 08:03:58;;;;;;;13.65;4.03;;;17.50;66.40;;;;;;5098670;28;20099;-72
2023/08/25 08:06:26;;;;;;;13.18;4.30;;;17.40;66.80;;;;;;5098696;28;20068;-71
2023/08/25 08:08:53;;;;;;;12.75;4.15;;;17.40;67.10;;;;;;5116518;28;20103;-71
2023/08/25 08:11:21;;;;;;;5.03;2.38;;;17.30;67.30;;;;;;5098822;28;20041;-72
2023/08/25 08:13:49;;;;;;;5.10;2.15;;;17.30;68.00;;;;;;5098468;28;20032;-72
2023/08/25 08:16:16;;;;;;;7.13;2.47;;;17.10;68.10;;;;;;5116384;28;20031;-72
2023/08/25 08:18:43;;;;;;;5.90;2.30;;;17.10;68.50;;;;;;5116420;28;20087;-71
2023/08/25 08:21:11;;;;;;;5.63;2.35;;;17.00;69.10;;;;;;5116464;28;20028;-71
2023/08/25 08:23:38;;;;;;;6.10;2.72;;;16.90;69.50;;;;;;5098135;28;20068;-71
2023/08/25 08:26:06;;;;;;;7.20;2.92;;;16.90;69.60;;;;;;5098467;28;20127;-72
2023/08/25 08:28:34;;;;;;;4.30;2.30;;;16.80;70.20;;;;;;5098247;28;20126;-71
2023/08/25 08:31:05;;;;;;;3.75;2.08;;;16.80;70.40;;;;;;5098264;28;20115;-72
2023/08/25 08:33:33;;;;;;;6.25;2.28;;;16.80;70.50;;;;;;5098343;28;20075;-71
2023/08/25 08:36:02;;;;;;;4.40;2.30;;;16.70;70.90;;;;;;5098254;28;20034;-72
2023/08/25 08:38:30;;;;;;;5.30;2.30;;;16.60;71.40;;;;;;5098188;28;20038;-72
2023/08/25 08:41:03;;;;;;;5.95;2.20;;;16.60;71.90;;;;;;5116000;28;20342;-71
2023/08/25 08:43:38;;;;;;;4.75;2.22;;;16.50;71.80;;;;;;5115944;28;20453;-72
2023/08/25 08:46:07;;;;;;;6.80;2.40;;;16.40;71.80;;;;;;5116075;28;20020;-67
2023/08/25 08:48:36;;;;;;;5.60;2.30;;;16.20;72.40;;;;;;5115650;28;20016;-71
2023/08/25 08:51:04;;;;;;;4.78;2.30;;;16.00;73.40;;;;;;5115895;28;20011;-72
2023/08/25 08:53:32;;;;;;;6.28;2.55;;;16.00;72.80;;;;;;5097838;28;20085;-79
2023/08/25 08:56:01;;;;;;;6.10;2.75;;;15.90;72.90;;;;;;5116176;28;20042;-79
2023/08/25 08:58:29;;;;;;;5.75;2.63;;;16.00;72.70;;;;;;5097705;28;20128;-78
2023/08/25 09:00:58;;;;;;;5.20;2.30;;;16.00;72.50;;;;;;5098410;28;20023;-77
2023/08/25 09:03:34;;;;;;;4.57;2.67;;;15.90;72.90;;;;;;5118911;28;20101;-79
2023/08/25 09:06:03;;;;;;;3.95;1.90;;;15.70;73.40;;;;;;5102577;28;20095;-78
2023/08/25 09:08:36;;;;;;;5.50;2.47;;;15.60;73.30;;;;;;5097783;28;20023;-78
2023/08/25 09:11:06;;;;;;;6.75;2.80;;;15.50;73.90;;;;;;5115676;28;20047;-78
2023/08/25 09:13:35;;;;;;;7.65;3.10;;;15.40;74.20;;;;;;5097614;28;20027;-78
2023/08/25 09:16:12;;;;;;;6.10;2.90;;;15.30;74.70;;;;;;5097783;28;20034;-77
2023/08/25 09:18:40;;;;;;;7.30;3.33;;;15.40;75.00;;;;;;5097907;28;20345;-78
2023/08/25 09:21:20;;;;;;;6.38;3.45;;;15.40;74.80;;;;;;5115599;28;20020;-77
2023/08/25 09:24:00;;;;;;;9.13;3.53;;;15.40;74.70;;;;;;5115247;28;20407;-78
2023/08/25 09:26:39;;;;;;;8.48;3.50;;;15.40;74.80;;;;;;5097896;28;20038;-78
2023/08/25 09:29:06;;;;;;;13.63;5.10;;;15.40;75.60;;;;;;5097562;28;20019;-78
2023/08/25 09:31:34;;;;;;;10.70;4.55;;;15.30;77.00;;;;;;5097644;28;20028;-78
2023/08/25 09:34:07;;;;;;;9.95;3.70;;;15.10;77.60;;;;;;5115541;28;20024;-76
2023/08/25 09:36:49;;;;;;;5.80;3.15;;;15.00;77.30;;;;;;5081043;28;20028;-78
2023/08/25 09:39:17;;;;;;;7.47;3.00;;;14.60;78.20;;;;;;5115514;28;20354;-77
2023/08/25 09:41:46;;;;;;;5.05;2.75;;;14.40;79.30;;;;;;5097486;28;20027;-77
2023/08/25 09:44:17;;;;;;;8.10;2.92;;;14.30;79.50;;;;;;5097533;28;20024;-77
2023/08/25 09:46:45;;;;;;;7.13;3.30;;;14.40;79.10;;;;;;5115286;28;20077;-78
2023/08/25 09:49:14;;;;;;;5.72;2.75;;;14.50;78.20;;;;;;5097228;28;20032;-78
2023/08/25 09:51:48;;;;;;;6.78;3.20;;;14.50;77.20;;;;;;5097461;28;20028;-77
2023/08/25 09:54:18;;;;;;;6.63;3.97;;;14.40;77.40;;;;;;5097380;28;20023;-78
2023/08/25 09:56:48;;;;;;;6.75;4.20;;;14.30;78.30;;;;;;5097549;28;20050;-77
2023/08/25 09:59:16;;;;;;;9.55;4.22;;;14.40;78.00;;;;;;5097434;28;20113;-77
2023/08/25 10:01:46;;;;;;;6.88;4.18;;;14.50;78.30;;;;;;5097188;28;20090;-77
2023/08/25 10:04:16;;;;;;;9.85;4.80;;;14.20;79.40;;;;;;5115225;28;20026;-77
2023/08/25 10:06:44;;;;;;;6.18;4.50;;;14.30;78.40;;;;;;5080788;28;20446;-78
2023/08/25 10:09:12;;;;;;;7.47;4.53;;;14.20;78.40;;;;;;5097481;28;20020;-76
2023/08/25 10:11:48;;;;;;;6.93;4.10;;;14.10;77.80;;;;;;5100699;28;20062;-76
2023/08/25 10:14:17;;;;;;;9.82;5.00;;;14.00;78.40;;;;;;5101565;28;20069;-76
2023/08/25 10:16:54;;;;;;;10.20;6.28;;;14.10;78.30;;;;;;5119839;28;20023;-76
2023/08/25 10:19:24;;;;;;;10.70;6.68;;;13.90;79.70;;;;;;5100921;28;20073;-75
2023/08/25 10:21:53;;;;;;;10.98;6.28;;;13.50;81.20;;;;;;5100607;28;20103;-76
2023/08/25 10:24:22;;;;;;;9.07;5.35;;;13.40;82.20;;;;;;5097280;28;20067;-77
2023/08/25 10:26:52;;;;;;;10.93;5.78;;;13.50;81.90;;;;;;5097409;28;20019;-72
2023/08/25 10:29:22;;;;;;;9.13;5.97;;;13.50;81.90;;;;;;5097371;28;20020;-65
2023/08/25 10:32:00;;;;;;;10.27;6.18;;;13.40;82.30;;;;;;5098231;28;20032;-73
2023/08/25 10:34:36;;;;;;;10.60;5.63;;;13.30;82.60;;;;;;5099685;28;20392;-75
2023/08/25 10:37:11;;;;;;;9.27;5.38;;;13.10;83.30;;;;;;5105569;28;20382;-73
2023/08/25 10:39:50;;;;;;;8.48;5.25;;;13.10;83.10;;;;;;5098226;28;20031;-74
2023/08/25 10:42:32;;;;;;;8.00;4.95;;;13.10;83.50;;;;;;5080575;28;20454;-74
2023/08/25 10:45:04;;;;;;;;;;;13.30;82.50;;;;;;5097045;28;20069;-75
2023/08/25 10:47:32;;;;;;;7.50;4.40;;;13.40;81.80;;;;;;5097772;28;19946;-75
2023/08/25 10:50:05;;;;;;;7.93;5.13;;;13.40;82.50;;;;;;5097002;28;20028;-74
2023/08/25 10:52:33;;;;;;;7.70;5.13;;;13.30;82.70;;;;;;5096811;28;20020;-75
2023/08/25 10:55:28;;;;;;;8.60;5.13;;;13.30;83.00;;;;;;5096749;28;20028;-74
2023/08/25 10:58:06;;;;;;;8.82;5.28;;;13.10;83.50;;;;;;5096686;28;20032;-75
2023/08/25 11:00:38;;;;;;;7.53;4.53;;;13.00;84.10;;;;;;5096614;28;20111;-74
2023/08/25 11:03:06;;;;;;;8.75;4.68;;;13.00;84.70;;;;;;5096758;28;20472;-74
2023/08/25 11:05:37;;;;;;;7.93;4.90;;;12.90;85.00;;;;;;5096634;28;20024;-75
2023/08/25 11:08:23;;;;;;;9.10;5.13;;;12.90;84.80;;;;;;5096592;28;20024;-74
2023/08/25 11:11:13;;;;;;;9.57;6.05;;;12.90;84.60;;;;;;5097536;28;20345;-75
2023/08/25 11:13:43;;;;;;;8.68;4.93;;;12.80;85.30;;;;;;5097500;28;20024;-74
2023/08/25 11:16:14;;;;;;;7.38;4.95;;;13.00;85.00;;;;;;5096438;28;20016;-74
2023/08/25 11:18:43;;;;;;;9.77;5.30;;;13.00;84.40;;;;;;5097336;28;20052;-74
2023/08/25 11:21:10;;;;;;;8.13;5.35;;;13.10;84.10;;;;;;5096475;28;20020;-75
2023/08/25 11:23:43;;;;;;;8.80;5.78;;;13.30;83.30;;;;;;5098777;28;20027;-75
2023/08/25 11:26:16;;;;;;;8.25;6.45;;;13.30;83.50;;;;;;5117709;28;20068;-74
2023/08/25 11:28:47;;;;;;;8.07;5.65;;;13.30;83.60;;;;;;5099475;28;20111;-75
2023/08/25 11:31:16;;;;;;;8.87;6.50;;;13.40;82.90;;;;;;5099628;28;20361;-75
2023/08/25 11:33:44;;;;;;;14.90;8.27;;;13.20;83.90;;;;;;5099408;28;20421;-75
2023/08/25 11:36:15;;;;;;;10.55;7.32;;;13.00;84.80;;;;;;5099616;28;20020;-75
2023/08/25 11:38:48;;;;;;;12.98;8.63;;;13.10;84.90;;;;;;5099370;28;20114;-75
2023/08/25 11:41:17;;;;;;;11.20;7.45;;;13.20;83.80;;;;;;5099841;28;20024;-74
2023/08/25 11:43:48;;;;;;;10.32;6.90;;;13.30;83.70;;;;;;5099327;28;20023;-74
2023/08/25 11:46:17;;;;;;;12.60;7.47;;;13.30;83.00;;;;;;5099305;28;20027;-75
2023/08/25 11:48:53;;;;;;;13.45;8.75;;;13.30;82.60;;;;;;5099042;28;20718;-74
2023/08/25 11:51:21;;;;;;;9.48;7.28;;;13.30;83.10;;;;;;5099192;28;20023;-74
2023/08/25 11:53:49;;;;;;;12.73;7.50;;;13.30;83.60;;;;;;5099006;28;20023;-74
2023/08/25 11:56:19;;;;;;;8.90;6.45;;;13.40;83.50;;;;;;5117257;28;20019;-73
2023/08/25 11:58:50;;;;;;;10.98;6.57;;;13.40;82.80;;;;;;5098980;28;20016;-74
2023/08/25 12:01:17;;;;;;;10.45;6.05;;;13.50;82.70;;;;;;5099236;28;20023;-74
2023/08/25 12:03:47;;;;;;;12.23;6.68;;;13.50;82.70;;;;;;5118324;28;20058;-75
2023/08/25 12:06:15;;;;;;;9.75;6.30;;;13.50;82.90;;;;;;5119803;28;20379;-74
2023/08/25 12:08:43;;;;;;;9.10;7.00;;;13.30;82.90;;;;;;5099921;28;20161;-74
2023/08/25 12:11:11;;;;;;;9.82;6.88;;;13.30;83.30;;;;;;5116912;28;20035;-74
2023/08/25 12:13:48;;;;;;;12.60;7.28;;;13.30;83.70;;;;;;5098805;28;20129;-75
2023/08/25 12:16:18;;;;;;;13.15;7.47;;;13.30;83.90;;;;;;5116646;28;20016;-74
2023/08/25 12:18:52;;;;;;;9.60;6.68;;;13.00;84.90;;;;;;5099000;28;20012;-75
2023/08/25 12:21:20;;;;;;;9.65;6.45;;;12.80;85.40;;;;;;5116705;28;20015;-74
2023/08/25 12:23:47;;;;;;;8.18;5.70;;;12.90;85.30;;;;;;5098320;28;20048;-74
2023/08/25 12:26:14;;;;;;;7.85;4.93;;;13.00;84.80;;;;;;5098464;28;20030;-75
2023/08/25 12:28:43;;;;;;;12.02;5.45;;;13.00;84.60;;;;;;5098323;28;20506;-75
2023/08/25 12:31:11;;;;;;;10.05;6.53;;;13.00;85.00;;;;;;5098386;28;20073;-75
2023/08/25 12:33:38;;;;;;;12.77;7.00;;;13.00;85.10;;;;;;5097934;28;20015;-75
2023/08/25 12:36:06;;;;;;;10.20;6.15;;;13.00;85.00;;;;;;5098431;28;20020;-74
2023/08/25 12:38:34;;;;;;;14.45;7.28;;;13.20;84.80;;;;;;5098147;28;20026;-74
2023/08/25 12:41:02;;;;;;;12.65;6.30;;;13.20;84.50;;;;;;5098272;28;20045;-74
2023/08/25 12:43:29;;;;;;;8.63;5.47;;;13.10;85.00;;;;;;5116181;28;20043;-74
2023/08/25 12:45:57;;;;;;;7.75;5.20;;;12.80;85.90;;;;;;5098159;28;20019;-74
2023/08/25 12:48:24;;;;;;;6.80;5.13;;;12.60;86.80;;;;;;5116051;28;20038;-74
2023/08/25 12:50:52;;;;;;;7.20;4.93;;;12.60;87.00;;;;;;5098050;28;20076;-74
2023/08/25 12:53:20;;;;;;;7.13;5.20;;;12.70;85.90;;;;;;5098040;28;20436;-73
2023/08/25 12:55:47;;;;;;;9.85;6.10;;;12.80;85.40;;;;;;5097940;28;20028;-74
2023/08/25 12:58:15;;;;;;;11.20;6.10;;;12.90;85.20;;;;;;5097885;28;20072;-74